الصفحة الرئيسية
METAR-TAF:

METAR-TAF

مطار :

مطار واغادوغو

واغادوغو, بوركينا فاسو

دائرة عرض: 12-21N, خط طول: 001-31W, ارتفاع: 316 متر

مراقبة الطقس الحالي

تاريخ ووقت الإصدار 59 دقيقة قبل الساعة 11:00UTC
ريح 7 عقدة من الجنوب الغربي, الاتجاه يتراوح بين الجنوب و الغرب/الشمال الغربي
درجة الحرارة 33°درجة مئوية
الرطوبة 46%
ضغط 1014 hPa
الرؤية 10 كم أو أكثر
الغيوم لا تقل 1500 م ولا وجود لمزنة ركامية السحاب الأسود

METAR: DFFD 271100Z 22007KT 170V290 CAVOK 33/20 Q1014 NOSIG

زمن: 11:59 (11:59 UTC)

توقعات

تاريخ ووقت الإصدار 59 دقيقة قبل الساعة 11:00UTC
التوقعات صالحة من27 الساعة 12 UTC إلى 28 الساعة 18 UTC
ريح 10 عقدة من الغرب/الجنوب الغربي
الرؤية 10 كم أو أكثر
الغيوم لا تقل 1500 م ولا وجود لمزنة ركامية السحاب الأسود
مؤقت
من 27 الساعة 16 UTC إلى 27 الساعة 24 UTC
الرؤية: 4000 متر
غيوم متفرقة على ارتفاع 2600 قدم
غيوم متفرقة على ارتفاع 3300 قدم, مزنة ركامية.
عاصفة رعدية, مطر

TAF: DFFD 271100Z 2712/2818 24010KT CAVOK TEMPO 2716/2724 4000 TSRA SCT026 SCT033CB

أرصاد الطقس والتوقعات من أكثر من 4000 مطار (تقارير الطقس للمطار METAR والتنبؤ بالطقس بالمطارTAF).

المحطات المتاحة هي النقط الصفراء والحمراء على الخريطة.

حرك المؤشر فوق النقطة لمعرفة اسم المحطة.

ثم انقر لمعرفة أرصاد وتوقعات الطقس.

لتغيير الخارطة: اضغط على الأزرار الخضراء مع رمز الصليب الأسود للتكبير. على الزر الأخضر مع شرطة للتصغير، أو على الأسهم الخضراء للخرائط المجاورة.


METAR-TAF: